sensor_id;sensor_type;location;lat;lon;timestamp;temperature;humidity
54429;DHT22;40337;52.978;6.310;2022-11-18T00:01:20;7.70;99.90
54429;DHT22;40337;52.978;6.310;2022-11-18T00:03:47;7.60;99.90
54429;DHT22;40337;52.978;6.310;2022-11-18T00:06:15;7.60;99.90
54429;DHT22;40337;52.978;6.310;2022-11-18T00:08:41;7.60;99.90
54429;DHT22;40337;52.978;6.310;2022-11-18T00:11:08;7.60;99.90
54429;DHT22;40337;52.978;6.310;2022-11-18T00:13:36;7.60;99.90
54429;DHT22;40337;52.978;6.310;2022-11-18T00:16:21;7.60;99.90
54429;DHT22;40337;52.978;6.310;2022-11-18T00:18:47;7.60;99.90
54429;DHT22;40337;52.978;6.310;2022-11-18T00:21:12;7.60;99.90
54429;DHT22;40337;52.978;6.310;2022-11-18T00:23:38;7.50;99.90
54429;DHT22;40337;52.978;6.310;2022-11-18T00:26:12;7.60;99.90
54429;DHT22;40337;52.978;6.310;2022-11-18T00:28:38;7.60;99.90
54429;DHT22;40337;52.978;6.310;2022-11-18T00:31:13;7.60;99.90
54429;DHT22;40337;52.978;6.310;2022-11-18T00:33:39;7.60;99.90
54429;DHT22;40337;52.978;6.310;2022-11-18T00:36:08;7.60;99.90
54429;DHT22;40337;52.978;6.310;2022-11-18T00:38:34;7.60;99.90
54429;DHT22;40337;52.978;6.310;2022-11-18T00:41:05;7.70;99.90
54429;DHT22;40337;52.978;6.310;2022-11-18T00:43:31;7.70;99.90
54429;DHT22;40337;52.978;6.310;2022-11-18T00:45:57;7.70;99.90
54429;DHT22;40337;52.978;6.310;2022-11-18T00:48:23;7.70;99.90
54429;DHT22;40337;52.978;6.310;2022-11-18T00:50:50;7.70;99.90
54429;DHT22;40337;52.978;6.310;2022-11-18T00:53:16;7.70;99.90
54429;DHT22;40337;52.978;6.310;2022-11-18T00:55:42;7.70;99.90
54429;DHT22;40337;52.978;6.310;2022-11-18T00:58:09;7.70;99.90
54429;DHT22;40337;52.978;6.310;2022-11-18T01:00:34;7.70;99.90
54429;DHT22;40337;52.978;6.310;2022-11-18T01:03:00;7.80;99.90
54429;DHT22;40337;52.978;6.310;2022-11-18T01:05:27;7.80;99.90
54429;DHT22;40337;52.978;6.310;2022-11-18T01:07:52;7.80;99.90
54429;DHT22;40337;52.978;6.310;2022-11-18T01:10:18;7.80;99.90
54429;DHT22;40337;52.978;6.310;2022-11-18T01:12:43;7.80;99.90
54429;DHT22;40337;52.978;6.310;2022-11-18T01:15:40;7.80;99.90
54429;DHT22;40337;52.978;6.310;2022-11-18T01:18:06;7.90;99.90
54429;DHT22;40337;52.978;6.310;2022-11-18T01:20:33;7.90;99.90
54429;DHT22;40337;52.978;6.310;2022-11-18T01:22:59;7.90;99.90
54429;DHT22;40337;52.978;6.310;2022-11-18T01:25:24;7.90;99.90
54429;DHT22;40337;52.978;6.310;2022-11-18T01:27:51;7.90;99.90
54429;DHT22;40337;52.978;6.310;2022-11-18T01:30:16;7.90;99.90
54429;DHT22;40337;52.978;6.310;2022-11-18T01:32:42;7.90;99.90
54429;DHT22;40337;52.978;6.310;2022-11-18T01:35:09;7.90;99.90
54429;DHT22;40337;52.978;6.310;2022-11-18T01:37:35;7.90;99.90
54429;DHT22;40337;52.978;6.310;2022-11-18T01:40:02;7.90;99.90
54429;DHT22;40337;52.978;6.310;2022-11-18T01:42:28;7.90;99.90
54429;DHT22;40337;52.978;6.310;2022-11-18T01:45:19;7.90;99.90
54429;DHT22;40337;52.978;6.310;2022-11-18T01:48:36;7.90;99.90
54429;DHT22;40337;52.978;6.310;2022-11-18T01:50:49;7.90;99.90
54429;DHT22;40337;52.978;6.310;2022-11-18T01:53:22;7.90;99.90
54429;DHT22;40337;52.978;6.310;2022-11-18T01:55:50;7.90;99.90
54429;DHT22;40337;52.978;6.310;2022-11-18T01:58:38;7.90;99.90
54429;DHT22;40337;52.978;6.310;2022-11-18T02:01:05;7.90;99.90
54429;DHT22;40337;52.978;6.310;2022-11-18T02:03:32;7.90;99.90
54429;DHT22;40337;52.978;6.310;2022-11-18T02:06:00;7.90;99.90
54429;DHT22;40337;52.978;6.310;2022-11-18T02:08:27;7.90;99.90
54429;DHT22;40337;52.978;6.310;2022-11-18T02:10:53;7.90;99.90
54429;DHT22;40337;52.978;6.310;2022-11-18T02:13:20;7.90;99.90
54429;DHT22;40337;52.978;6.310;2022-11-18T02:18:44;7.90;99.90
54429;DHT22;40337;52.978;6.310;2022-11-18T02:30:11;7.90;99.90
54429;DHT22;40337;52.978;6.310;2022-11-18T02:32:43;7.90;99.90
54429;DHT22;40337;52.978;6.310;2022-11-18T02:37:59;7.90;99.90
54429;DHT22;40337;52.978;6.310;2022-11-18T02:40:44;7.90;99.90
54429;DHT22;40337;52.978;6.310;2022-11-18T02:43:19;7.90;99.90
54429;DHT22;40337;52.978;6.310;2022-11-18T02:45:49;7.90;99.90
54429;DHT22;40337;52.978;6.310;2022-11-18T02:48:17;7.90;99.90
54429;DHT22;40337;52.978;6.310;2022-11-18T02:50:46;7.90;99.90
54429;DHT22;40337;52.978;6.310;2022-11-18T02:53:15;7.90;99.90
54429;DHT22;40337;52.978;6.310;2022-11-18T02:55:44;7.90;99.90
54429;DHT22;40337;52.978;6.310;2022-11-18T02:58:11;7.90;99.90
54429;DHT22;40337;52.978;6.310;2022-11-18T03:00:37;7.90;99.90
54429;DHT22;40337;52.978;6.310;2022-11-18T03:03:29;7.90;99.90
54429;DHT22;40337;52.978;6.310;2022-11-18T03:08:41;7.90;99.90
54429;DHT22;40337;52.978;6.310;2022-11-18T03:16:26;7.90;99.90
54429;DHT22;40337;52.978;6.310;2022-11-18T03:21:44;7.90;99.90
54429;DHT22;40337;52.978;6.310;2022-11-18T03:24:24;7.90;99.90
54429;DHT22;40337;52.978;6.310;2022-11-18T03:26:58;7.90;99.90
54429;DHT22;40337;52.978;6.310;2022-11-18T03:29:33;7.90;99.90
54429;DHT22;40337;52.978;6.310;2022-11-18T03:32:12;7.90;99.90
54429;DHT22;40337;52.978;6.310;2022-11-18T03:34:45;7.90;99.90
54429;DHT22;40337;52.978;6.310;2022-11-18T03:37:13;7.90;99.90
54429;DHT22;40337;52.978;6.310;2022-11-18T03:39:47;7.90;99.90
54429;DHT22;40337;52.978;6.310;2022-11-18T03:44:48;7.90;99.90
54429;DHT22;40337;52.978;6.310;2022-11-18T03:47:23;7.90;99.90
54429;DHT22;40337;52.978;6.310;2022-11-18T03:49:55;7.90;99.90
54429;DHT22;40337;52.978;6.310;2022-11-18T03:52:25;7.90;99.90
54429;DHT22;40337;52.978;6.310;2022-11-18T03:54:56;7.90;99.90
54429;DHT22;40337;52.978;6.310;2022-11-18T03:57:33;7.90;99.90
54429;DHT22;40337;52.978;6.310;2022-11-18T04:00:06;7.90;99.90
54429;DHT22;40337;52.978;6.310;2022-11-18T04:02:33;7.90;99.90
54429;DHT22;40337;52.978;6.310;2022-11-18T04:04:59;7.90;99.90
54429;DHT22;40337;52.978;6.310;2022-11-18T04:13:08;7.90;99.90
54429;DHT22;40337;52.978;6.310;2022-11-18T04:15:37;7.90;99.90
54429;DHT22;40337;52.978;6.310;2022-11-18T04:18:04;7.90;99.90
54429;DHT22;40337;52.978;6.310;2022-11-18T04:20:30;7.90;99.90
54429;DHT22;40337;52.978;6.310;2022-11-18T04:22:56;7.90;99.90
54429;DHT22;40337;52.978;6.310;2022-11-18T04:25:22;7.90;99.90
54429;DHT22;40337;52.978;6.310;2022-11-18T04:27:49;7.80;99.90
54429;DHT22;40337;52.978;6.310;2022-11-18T04:30:15;7.90;99.90
54429;DHT22;40337;52.978;6.310;2022-11-18T04:32:40;7.80;99.90
54429;DHT22;40337;52.978;6.310;2022-11-18T04:35:06;7.90;99.90
54429;DHT22;40337;52.978;6.310;2022-11-18T04:37:32;7.80;99.90
54429;DHT22;40337;52.978;6.310;2022-11-18T04:39:57;7.80;99.90
54429;DHT22;40337;52.978;6.310;2022-11-18T04:42:23;7.80;99.90
54429;DHT22;40337;52.978;6.310;2022-11-18T04:44:48;7.80;99.90
54429;DHT22;40337;52.978;6.310;2022-11-18T04:47:14;7.80;99.90
54429;DHT22;40337;52.978;6.310;2022-11-18T04:49:39;7.80;99.90
54429;DHT22;40337;52.978;6.310;2022-11-18T04:52:05;7.80;99.90
54429;DHT22;40337;52.978;6.310;2022-11-18T04:54:31;7.90;99.90
54429;DHT22;40337;52.978;6.310;2022-11-18T04:56:56;7.80;99.90
54429;DHT22;40337;52.978;6.310;2022-11-18T04:59:25;7.80;99.90
54429;DHT22;40337;52.978;6.310;2022-11-18T05:01:51;7.80;99.90
54429;DHT22;40337;52.978;6.310;2022-11-18T05:04:21;7.80;99.90
54429;DHT22;40337;52.978;6.310;2022-11-18T05:06:47;7.80;99.90
54429;DHT22;40337;52.978;6.310;2022-11-18T05:09:14;7.70;99.90
54429;DHT22;40337;52.978;6.310;2022-11-18T05:11:40;7.70;99.90
54429;DHT22;40337;52.978;6.310;2022-11-18T05:14:25;7.70;99.90
54429;DHT22;40337;52.978;6.310;2022-11-18T05:16:51;7.70;99.90
54429;DHT22;40337;52.978;6.310;2022-11-18T05:19:17;7.70;99.90
54429;DHT22;40337;52.978;6.310;2022-11-18T05:21:43;7.70;99.90
54429;DHT22;40337;52.978;6.310;2022-11-18T05:24:08;7.70;99.90
54429;DHT22;40337;52.978;6.310;2022-11-18T05:26:34;7.60;99.90
54429;DHT22;40337;52.978;6.310;2022-11-18T05:29:00;7.60;99.90
54429;DHT22;40337;52.978;6.310;2022-11-18T05:31:25;7.60;99.90
54429;DHT22;40337;52.978;6.310;2022-11-18T05:33:51;7.70;99.90
54429;DHT22;40337;52.978;6.310;2022-11-18T05:36:17;7.70;99.90
54429;DHT22;40337;52.978;6.310;2022-11-18T05:38:44;7.60;99.90
54429;DHT22;40337;52.978;6.310;2022-11-18T05:41:10;7.60;99.90
54429;DHT22;40337;52.978;6.310;2022-11-18T05:43:55;7.60;99.90
54429;DHT22;40337;52.978;6.310;2022-11-18T05:46:21;7.60;99.90
54429;DHT22;40337;52.978;6.310;2022-11-18T05:48:46;7.60;99.90
54429;DHT22;40337;52.978;6.310;2022-11-18T05:51:12;7.60;99.90
54429;DHT22;40337;52.978;6.310;2022-11-18T05:53:37;7.60;99.90
54429;DHT22;40337;52.978;6.310;2022-11-18T05:56:18;7.60;99.90
54429;DHT22;40337;52.978;6.310;2022-11-18T05:58:44;7.60;99.90
54429;DHT22;40337;52.978;6.310;2022-11-18T06:01:11;7.60;99.90
54429;DHT22;40337;52.978;6.310;2022-11-18T06:03:39;7.60;99.90
54429;DHT22;40337;52.978;6.310;2022-11-18T06:06:07;7.60;99.90
54429;DHT22;40337;52.978;6.310;2022-11-18T06:08:50;7.60;99.90
54429;DHT22;40337;52.978;6.310;2022-11-18T06:11:18;7.60;99.90
54429;DHT22;40337;52.978;6.310;2022-11-18T06:13:50;7.60;99.90
54429;DHT22;40337;52.978;6.310;2022-11-18T06:16:22;7.60;99.90
54429;DHT22;40337;52.978;6.310;2022-11-18T06:18:49;7.60;99.90
54429;DHT22;40337;52.978;6.310;2022-11-18T06:21:15;7.60;99.90
54429;DHT22;40337;52.978;6.310;2022-11-18T06:23:41;7.50;99.90
54429;DHT22;40337;52.978;6.310;2022-11-18T06:26:08;7.50;99.90
54429;DHT22;40337;52.978;6.310;2022-11-18T06:28:34;7.50;99.90
54429;DHT22;40337;52.978;6.310;2022-11-18T06:31:01;7.50;99.90
54429;DHT22;40337;52.978;6.310;2022-11-18T06:33:26;7.50;99.90
54429;DHT22;40337;52.978;6.310;2022-11-18T06:35:52;7.50;99.90
54429;DHT22;40337;52.978;6.310;2022-11-18T06:38:17;7.60;99.90
54429;DHT22;40337;52.978;6.310;2022-11-18T06:40:43;7.50;99.90
54429;DHT22;40337;52.978;6.310;2022-11-18T06:43:10;7.50;99.90
54429;DHT22;40337;52.978;6.310;2022-11-18T06:46:02;7.50;99.90
54429;DHT22;40337;52.978;6.310;2022-11-18T06:48:46;7.50;99.90
54429;DHT22;40337;52.978;6.310;2022-11-18T06:51:12;7.50;99.90
54429;DHT22;40337;52.978;6.310;2022-11-18T06:53:38;7.40;99.90
54429;DHT22;40337;52.978;6.310;2022-11-18T06:56:05;7.50;99.90
54429;DHT22;40337;52.978;6.310;2022-11-18T06:58:31;7.50;99.90
54429;DHT22;40337;52.978;6.310;2022-11-18T07:00:57;7.40;99.90
54429;DHT22;40337;52.978;6.310;2022-11-18T07:03:22;7.50;99.90
54429;DHT22;40337;52.978;6.310;2022-11-18T07:05:48;7.40;99.90
54429;DHT22;40337;52.978;6.310;2022-11-18T07:08:13;7.40;99.90
54429;DHT22;40337;52.978;6.310;2022-11-18T07:10:39;7.40;99.90
54429;DHT22;40337;52.978;6.310;2022-11-18T07:13:04;7.40;99.90
54429;DHT22;40337;52.978;6.310;2022-11-18T07:15:30;7.40;99.90
54429;DHT22;40337;52.978;6.310;2022-11-18T07:17:55;7.40;99.90
54429;DHT22;40337;52.978;6.310;2022-11-18T07:20:21;7.40;99.90
54429;DHT22;40337;52.978;6.310;2022-11-18T07:22:46;7.40;99.90
54429;DHT22;40337;52.978;6.310;2022-11-18T07:25:12;7.40;99.90
54429;DHT22;40337;52.978;6.310;2022-11-18T07:27:37;7.40;99.90
54429;DHT22;40337;52.978;6.310;2022-11-18T07:30:03;7.40;99.90
54429;DHT22;40337;52.978;6.310;2022-11-18T07:32:29;7.30;99.90
54429;DHT22;40337;52.978;6.310;2022-11-18T07:34:56;7.30;99.90
54429;DHT22;40337;52.978;6.310;2022-11-18T07:37:22;7.40;99.90
54429;DHT22;40337;52.978;6.310;2022-11-18T07:39:47;7.30;99.90
54429;DHT22;40337;52.978;6.310;2022-11-18T07:42:13;7.30;99.90
54429;DHT22;40337;52.978;6.310;2022-11-18T07:44:38;7.30;99.90
54429;DHT22;40337;52.978;6.310;2022-11-18T07:47:04;7.30;99.90
54429;DHT22;40337;52.978;6.310;2022-11-18T07:49:29;7.30;99.90
54429;DHT22;40337;52.978;6.310;2022-11-18T07:51:56;7.30;99.90
54429;DHT22;40337;52.978;6.310;2022-11-18T07:54:21;7.30;99.90
54429;DHT22;40337;52.978;6.310;2022-11-18T07:56:47;7.30;99.90
54429;DHT22;40337;52.978;6.310;2022-11-18T07:59:13;7.30;99.90
54429;DHT22;40337;52.978;6.310;2022-11-18T08:01:38;7.30;99.90
54429;DHT22;40337;52.978;6.310;2022-11-18T08:04:06;7.30;99.90
54429;DHT22;40337;52.978;6.310;2022-11-18T08:06:33;7.30;99.90
54429;DHT22;40337;52.978;6.310;2022-11-18T08:08:59;7.30;99.90
54429;DHT22;40337;52.978;6.310;2022-11-18T08:11:25;7.30;99.90
54429;DHT22;40337;52.978;6.310;2022-11-18T08:13:50;7.40;99.90
54429;DHT22;40337;52.978;6.310;2022-11-18T08:16:19;7.40;99.90
54429;DHT22;40337;52.978;6.310;2022-11-18T08:18:45;7.40;99.90
54429;DHT22;40337;52.978;6.310;2022-11-18T08:21:11;7.40;99.90
54429;DHT22;40337;52.978;6.310;2022-11-18T08:23:37;7.40;99.90
54429;DHT22;40337;52.978;6.310;2022-11-18T08:26:08;7.40;99.90
54429;DHT22;40337;52.978;6.310;2022-11-18T08:28:35;7.40;99.90
54429;DHT22;40337;52.978;6.310;2022-11-18T08:31:11;7.40;99.90
54429;DHT22;40337;52.978;6.310;2022-11-18T08:33:37;7.40;99.90
54429;DHT22;40337;52.978;6.310;2022-11-18T08:36:30;7.40;99.90
54429;DHT22;40337;52.978;6.310;2022-11-18T08:38:58;7.40;99.90
54429;DHT22;40337;52.978;6.310;2022-11-18T08:41:28;7.40;99.90
54429;DHT22;40337;52.978;6.310;2022-11-18T08:43:55;7.40;99.90
54429;DHT22;40337;52.978;6.310;2022-11-18T08:46:20;7.40;99.90
54429;DHT22;40337;52.978;6.310;2022-11-18T08:48:47;7.30;99.90
54429;DHT22;40337;52.978;6.310;2022-11-18T08:51:13;7.30;99.90
54429;DHT22;40337;52.978;6.310;2022-11-18T08:53:38;7.30;99.90
54429;DHT22;40337;52.978;6.310;2022-11-18T08:56:04;7.30;99.90
54429;DHT22;40337;52.978;6.310;2022-11-18T08:58:30;7.30;99.90
54429;DHT22;40337;52.978;6.310;2022-11-18T09:00:56;7.30;99.90
54429;DHT22;40337;52.978;6.310;2022-11-18T09:03:22;7.30;99.90
54429;DHT22;40337;52.978;6.310;2022-11-18T09:05:48;7.30;99.90
54429;DHT22;40337;52.978;6.310;2022-11-18T09:08:14;7.20;99.90
54429;DHT22;40337;52.978;6.310;2022-11-18T09:10:40;7.20;99.90
54429;DHT22;40337;52.978;6.310;2022-11-18T09:13:06;7.30;99.90
54429;DHT22;40337;52.978;6.310;2022-11-18T09:15:31;7.20;99.90
54429;DHT22;40337;52.978;6.310;2022-11-18T09:17:57;7.30;99.90
54429;DHT22;40337;52.978;6.310;2022-11-18T09:20:23;7.30;99.90
54429;DHT22;40337;52.978;6.310;2022-11-18T09:22:48;7.30;99.90
54429;DHT22;40337;52.978;6.310;2022-11-18T09:25:14;7.30;99.90
54429;DHT22;40337;52.978;6.310;2022-11-18T09:27:40;7.40;99.90
54429;DHT22;40337;52.978;6.310;2022-11-18T09:30:06;7.30;99.90
54429;DHT22;40337;52.978;6.310;2022-11-18T09:32:32;7.30;99.90
54429;DHT22;40337;52.978;6.310;2022-11-18T09:34:58;7.30;99.90
54429;DHT22;40337;52.978;6.310;2022-11-18T09:37:23;7.30;99.90
54429;DHT22;40337;52.978;6.310;2022-11-18T09:39:49;7.30;99.90
54429;DHT22;40337;52.978;6.310;2022-11-18T09:45:10;7.40;99.90
54429;DHT22;40337;52.978;6.310;2022-11-18T09:47:38;7.40;99.90
54429;DHT22;40337;52.978;6.310;2022-11-18T09:50:21;7.40;99.90
54429;DHT22;40337;52.978;6.310;2022-11-18T09:55:37;7.50;99.90
54429;DHT22;40337;52.978;6.310;2022-11-18T09:58:04;7.40;99.90
54429;DHT22;40337;52.978;6.310;2022-11-18T10:00:30;7.50;99.90
54429;DHT22;40337;52.978;6.310;2022-11-18T10:03:02;7.50;99.90
54429;DHT22;40337;52.978;6.310;2022-11-18T10:05:52;7.40;99.90
54429;DHT22;40337;52.978;6.310;2022-11-18T10:08:27;7.40;99.90
54429;DHT22;40337;52.978;6.310;2022-11-18T10:11:13;7.40;99.90
54429;DHT22;40337;52.978;6.310;2022-11-18T10:16:28;7.40;99.90
54429;DHT22;40337;52.978;6.310;2022-11-18T10:24:16;7.40;99.90
54429;DHT22;40337;52.978;6.310;2022-11-18T10:26:43;7.40;99.90
54429;DHT22;40337;52.978;6.310;2022-11-18T10:29:09;7.40;99.90
54429;DHT22;40337;52.978;6.310;2022-11-18T10:31:51;7.40;99.90
54429;DHT22;40337;52.978;6.310;2022-11-18T10:34:18;7.40;99.90
54429;DHT22;40337;52.978;6.310;2022-11-18T10:37:09;7.40;99.90
54429;DHT22;40337;52.978;6.310;2022-11-18T10:39:52;7.40;99.90
54429;DHT22;40337;52.978;6.310;2022-11-18T10:42:28;7.40;99.90
54429;DHT22;40337;52.978;6.310;2022-11-18T10:44:55;7.40;99.90
54429;DHT22;40337;52.978;6.310;2022-11-18T10:47:31;7.40;99.90
54429;DHT22;40337;52.978;6.310;2022-11-18T10:50:09;7.40;99.90
54429;DHT22;40337;52.978;6.310;2022-11-18T10:52:51;7.40;99.90
54429;DHT22;40337;52.978;6.310;2022-11-18T10:55:23;7.40;99.90
54429;DHT22;40337;52.978;6.310;2022-11-18T10:57:52;7.40;99.90
54429;DHT22;40337;52.978;6.310;2022-11-18T11:00:36;7.40;99.90
54429;DHT22;40337;52.978;6.310;2022-11-18T11:03:33;7.40;99.90
54429;DHT22;40337;52.978;6.310;2022-11-18T11:06:19;7.40;99.90
54429;DHT22;40337;52.978;6.310;2022-11-18T11:08:54;7.40;99.90
54429;DHT22;40337;52.978;6.310;2022-11-18T11:11:32;7.30;99.90
54429;DHT22;40337;52.978;6.310;2022-11-18T11:19:22;7.20;99.90
54429;DHT22;40337;52.978;6.310;2022-11-18T11:21:48;7.20;99.90
54429;DHT22;40337;52.978;6.310;2022-11-18T11:24:13;7.20;99.90
54429;DHT22;40337;52.978;6.310;2022-11-18T11:26:45;7.20;99.90
54429;DHT22;40337;52.978;6.310;2022-11-18T11:40:13;7.20;99.90
54429;DHT22;40337;52.978;6.310;2022-11-18T11:46:01;7.20;99.90
54429;DHT22;40337;52.978;6.310;2022-11-18T11:51:24;7.20;99.90
54429;DHT22;40337;52.978;6.310;2022-11-18T11:59:28;7.20;99.90
54429;DHT22;40337;52.978;6.310;2022-11-18T12:04:55;7.20;99.90
54429;DHT22;40337;52.978;6.310;2022-11-18T12:07:28;7.20;99.90
54429;DHT22;40337;52.978;6.310;2022-11-18T12:10:22;7.20;99.90
54429;DHT22;40337;52.978;6.310;2022-11-18T12:15:34;7.20;99.90
54429;DHT22;40337;52.978;6.310;2022-11-18T12:18:20;7.20;99.90
54429;DHT22;40337;52.978;6.310;2022-11-18T12:20:51;7.20;99.90
54429;DHT22;40337;52.978;6.310;2022-11-18T12:28:23;7.10;99.90
54429;DHT22;40337;52.978;6.310;2022-11-18T12:30:50;7.00;99.90
54429;DHT22;40337;52.978;6.310;2022-11-18T12:33:16;6.90;99.90
54429;DHT22;40337;52.978;6.310;2022-11-18T12:35:47;6.90;99.90
54429;DHT22;40337;52.978;6.310;2022-11-18T12:38:30;6.90;99.90
54429;DHT22;40337;52.978;6.310;2022-11-18T12:40:55;6.90;99.90
54429;DHT22;40337;52.978;6.310;2022-11-18T12:46:08;6.90;99.90
54429;DHT22;40337;52.978;6.310;2022-11-18T12:48:40;6.90;99.90
54429;DHT22;40337;52.978;6.310;2022-11-18T12:53:45;6.90;99.90
54429;DHT22;40337;52.978;6.310;2022-11-18T12:56:25;6.90;99.90
54429;DHT22;40337;52.978;6.310;2022-11-18T12:58:56;6.90;99.90
54429;DHT22;40337;52.978;6.310;2022-11-18T13:01:25;6.80;99.90
54429;DHT22;40337;52.978;6.310;2022-11-18T13:03:52;6.80;99.90
54429;DHT22;40337;52.978;6.310;2022-11-18T13:06:31;6.80;99.90
54429;DHT22;40337;52.978;6.310;2022-11-18T13:09:00;6.80;99.90
54429;DHT22;40337;52.978;6.310;2022-11-18T13:11:28;6.80;99.90
54429;DHT22;40337;52.978;6.310;2022-11-18T13:14:16;6.70;99.90
54429;DHT22;40337;52.978;6.310;2022-11-18T13:17:01;6.70;99.90
54429;DHT22;40337;52.978;6.310;2022-11-18T13:19:56;6.70;99.90
54429;DHT22;40337;52.978;6.310;2022-11-18T13:22:22;6.70;99.90
54429;DHT22;40337;52.978;6.310;2022-11-18T13:25:24;6.60;99.90
54429;DHT22;40337;52.978;6.310;2022-11-18T13:30:29;6.60;99.90
54429;DHT22;40337;52.978;6.310;2022-11-18T13:32:57;6.60;99.90
54429;DHT22;40337;52.978;6.310;2022-11-18T13:35:23;6.60;99.90
54429;DHT22;40337;52.978;6.310;2022-11-18T13:37:57;6.60;99.90
54429;DHT22;40337;52.978;6.310;2022-11-18T13:40:26;6.60;99.90
54429;DHT22;40337;52.978;6.310;2022-11-18T13:42:52;6.60;99.90
54429;DHT22;40337;52.978;6.310;2022-11-18T13:45:19;6.60;99.90
54429;DHT22;40337;52.978;6.310;2022-11-18T13:48:04;6.50;99.90
54429;DHT22;40337;52.978;6.310;2022-11-18T13:53:08;6.50;99.90
54429;DHT22;40337;52.978;6.310;2022-11-18T13:58:42;6.40;99.90
54429;DHT22;40337;52.978;6.310;2022-11-18T14:01:18;6.40;99.90
54429;DHT22;40337;52.978;6.310;2022-11-18T14:03:51;6.40;99.90
54429;DHT22;40337;52.978;6.310;2022-11-18T14:08:50;6.30;99.90
54429;DHT22;40337;52.978;6.310;2022-11-18T14:11:34;6.30;99.90
54429;DHT22;40337;52.978;6.310;2022-11-18T14:14:00;6.20;99.90
54429;DHT22;40337;52.978;6.310;2022-11-18T14:16:37;6.20;99.90
54429;DHT22;40337;52.978;6.310;2022-11-18T14:19:04;6.20;99.90
54429;DHT22;40337;52.978;6.310;2022-11-18T14:21:34;6.10;99.90
54429;DHT22;40337;52.978;6.310;2022-11-18T14:24:01;6.10;99.90
54429;DHT22;40337;52.978;6.310;2022-11-18T14:26:34;6.10;99.90
54429;DHT22;40337;52.978;6.310;2022-11-18T14:29:02;6.00;99.90
54429;DHT22;40337;52.978;6.310;2022-11-18T14:31:38;6.00;99.90
54429;DHT22;40337;52.978;6.310;2022-11-18T14:36:46;5.90;99.90
54429;DHT22;40337;52.978;6.310;2022-11-18T14:39:22;5.80;99.90
54429;DHT22;40337;52.978;6.310;2022-11-18T14:41:49;5.80;99.90
54429;DHT22;40337;52.978;6.310;2022-11-18T14:44:17;5.80;99.90
54429;DHT22;40337;52.978;6.310;2022-11-18T14:46:52;5.70;99.90
54429;DHT22;40337;52.978;6.310;2022-11-18T14:49:21;5.70;99.90
54429;DHT22;40337;52.978;6.310;2022-11-18T14:51:47;5.70;99.90
54429;DHT22;40337;52.978;6.310;2022-11-18T14:54:14;5.70;99.90
54429;DHT22;40337;52.978;6.310;2022-11-18T14:56:41;5.70;99.90
54429;DHT22;40337;52.978;6.310;2022-11-18T14:59:12;5.70;99.90
54429;DHT22;40337;52.978;6.310;2022-11-18T15:01:39;5.70;99.90
54429;DHT22;40337;52.978;6.310;2022-11-18T15:04:04;5.60;99.90
54429;DHT22;40337;52.978;6.310;2022-11-18T15:06:30;5.60;99.90
54429;DHT22;40337;52.978;6.310;2022-11-18T15:08:55;5.60;99.90
54429;DHT22;40337;52.978;6.310;2022-11-18T15:11:21;5.60;99.90
54429;DHT22;40337;52.978;6.310;2022-11-18T15:13:47;5.50;99.90
54429;DHT22;40337;52.978;6.310;2022-11-18T15:16:21;5.60;99.90
54429;DHT22;40337;52.978;6.310;2022-11-18T15:18:49;5.50;99.90
54429;DHT22;40337;52.978;6.310;2022-11-18T15:21:16;5.50;99.90
54429;DHT22;40337;52.978;6.310;2022-11-18T15:23:41;5.40;99.90
54429;DHT22;40337;52.978;6.310;2022-11-18T15:26:24;5.40;99.90
54429;DHT22;40337;52.978;6.310;2022-11-18T15:28:52;5.30;99.90
54429;DHT22;40337;52.978;6.310;2022-11-18T15:31:18;5.30;99.90
54429;DHT22;40337;52.978;6.310;2022-11-18T15:33:44;5.30;99.90
54429;DHT22;40337;52.978;6.310;2022-11-18T15:36:15;5.20;99.90
54429;DHT22;40337;52.978;6.310;2022-11-18T15:38:41;5.20;99.90
54429;DHT22;40337;52.978;6.310;2022-11-18T15:41:24;5.20;99.90
54429;DHT22;40337;52.978;6.310;2022-11-18T15:43:52;5.20;99.90
54429;DHT22;40337;52.978;6.310;2022-11-18T15:46:19;5.20;99.90
54429;DHT22;40337;52.978;6.310;2022-11-18T15:48:45;5.20;99.90
54429;DHT22;40337;52.978;6.310;2022-11-18T15:51:11;5.20;99.90
54429;DHT22;40337;52.978;6.310;2022-11-18T15:53:37;5.10;99.90
54429;DHT22;40337;52.978;6.310;2022-11-18T15:56:23;5.10;99.90
54429;DHT22;40337;52.978;6.310;2022-11-18T15:58:55;5.10;99.90
54429;DHT22;40337;52.978;6.310;2022-11-18T16:01:21;5.10;99.90
54429;DHT22;40337;52.978;6.310;2022-11-18T16:03:48;5.10;99.90
54429;DHT22;40337;52.978;6.310;2022-11-18T16:06:14;5.10;99.90
54429;DHT22;40337;52.978;6.310;2022-11-18T16:08:40;5.10;99.90
54429;DHT22;40337;52.978;6.310;2022-11-18T16:11:05;5.10;99.90
54429;DHT22;40337;52.978;6.310;2022-11-18T16:13:49;5.10;99.90
54429;DHT22;40337;52.978;6.310;2022-11-18T16:16:23;5.00;99.90
54429;DHT22;40337;52.978;6.310;2022-11-18T16:18:53;5.00;99.90
54429;DHT22;40337;52.978;6.310;2022-11-18T16:21:20;5.00;99.90
54429;DHT22;40337;52.978;6.310;2022-11-18T16:23:45;4.90;99.90
54429;DHT22;40337;52.978;6.310;2022-11-18T16:26:11;4.90;99.90
54429;DHT22;40337;52.978;6.310;2022-11-18T16:28:36;5.00;99.90
54429;DHT22;40337;52.978;6.310;2022-11-18T16:31:04;4.90;99.90
54429;DHT22;40337;52.978;6.310;2022-11-18T16:33:48;4.90;99.90
54429;DHT22;40337;52.978;6.310;2022-11-18T16:36:14;4.90;99.90
54429;DHT22;40337;52.978;6.310;2022-11-18T16:38:39;4.90;99.90
54429;DHT22;40337;52.978;6.310;2022-11-18T16:41:05;4.90;99.90
54429;DHT22;40337;52.978;6.310;2022-11-18T16:43:51;4.80;99.90
54429;DHT22;40337;52.978;6.310;2022-11-18T16:46:16;4.70;99.90
54429;DHT22;40337;52.978;6.310;2022-11-18T16:48:42;4.70;99.90
54429;DHT22;40337;52.978;6.310;2022-11-18T16:51:19;4.70;99.90
54429;DHT22;40337;52.978;6.310;2022-11-18T16:53:55;4.70;99.90
54429;DHT22;40337;52.978;6.310;2022-11-18T16:56:23;4.70;99.90
54429;DHT22;40337;52.978;6.310;2022-11-18T16:58:49;4.70;99.90
54429;DHT22;40337;52.978;6.310;2022-11-18T17:01:15;4.70;99.90
54429;DHT22;40337;52.978;6.310;2022-11-18T17:03:40;4.70;99.90
54429;DHT22;40337;52.978;6.310;2022-11-18T17:06:07;4.70;99.90
54429;DHT22;40337;52.978;6.310;2022-11-18T17:08:34;4.60;99.90
54429;DHT22;40337;52.978;6.310;2022-11-18T17:11:04;4.60;99.90
54429;DHT22;40337;52.978;6.310;2022-11-18T17:13:30;4.60;99.90
54429;DHT22;40337;52.978;6.310;2022-11-18T17:15:55;4.50;99.90
54429;DHT22;40337;52.978;6.310;2022-11-18T17:18:21;4.50;99.90
54429;DHT22;40337;52.978;6.310;2022-11-18T17:20:46;4.50;99.90
54429;DHT22;40337;52.978;6.310;2022-11-18T17:23:12;4.50;99.90
54429;DHT22;40337;52.978;6.310;2022-11-18T17:25:38;4.50;99.90
54429;DHT22;40337;52.978;6.310;2022-11-18T17:28:04;4.50;99.90
54429;DHT22;40337;52.978;6.310;2022-11-18T17:30:30;4.50;99.90
54429;DHT22;40337;52.978;6.310;2022-11-18T17:32:55;4.60;99.90
54429;DHT22;40337;52.978;6.310;2022-11-18T17:35:21;4.50;99.90
54429;DHT22;40337;52.978;6.310;2022-11-18T17:37:46;4.50;99.90
54429;DHT22;40337;52.978;6.310;2022-11-18T17:40:12;4.50;99.90
54429;DHT22;40337;52.978;6.310;2022-11-18T17:42:37;4.50;99.90
54429;DHT22;40337;52.978;6.310;2022-11-18T17:45:03;4.40;99.90